Time;durP1;ratioP1;P1;durP2;ratioP2;P2;SDS_P1;SDS_P2;PMS_P1;PMS_P2;Temp;Humidity;BMP_temperature;BMP_pressure;BME280_temperature;BME280_humidity;BME280_pressure;Samples;Min_cycle;Max_cycle;Signal;HPM_P1;HPM_P2
2022/04/20 00:01:00;;;;;;;3.45;1.95;;;;;;;7.81;69.24;94961.66;5096680;28;20095;-58
2022/04/20 00:03:25;;;;;;;1.90;1.80;;;;;;;7.79;68.07;94960.97;5094950;28;20023;-58
2022/04/20 00:05:51;;;;;;;1.80;1.70;;;;;;;7.78;67.10;94951.47;5095321;28;20047;-59
2022/04/20 00:08:16;;;;;;;5.20;2.15;;;;;;;7.82;67.43;94944.97;5098852;28;20486;-59
2022/04/20 00:10:41;;;;;;;1.85;1.75;;;;;;;7.80;68.23;94946.91;5095639;28;20024;-59
2022/04/20 00:13:07;;;;;;;1.90;1.83;;;;;;;7.73;68.23;94937.00;5094221;28;20024;-58
2022/04/20 00:15:32;;;;;;;1.67;1.55;;;;;;;7.64;68.77;94940.50;5099000;28;20433;-58
2022/04/20 00:17:58;;;;;;;1.92;1.77;;;;;;;7.63;69.34;94941.47;5095000;28;20111;-58
2022/04/20 00:20:23;;;;;;;3.22;2.08;;;;;;;7.67;69.75;94934.97;5094785;28;20024;-59
2022/04/20 00:22:48;;;;;;;2.00;1.90;;;;;;;7.65;69.76;94936.91;5096536;28;20032;-59
2022/04/20 00:25:14;;;;;;;1.88;1.77;;;;;;;7.64;69.05;94937.88;5097814;28;20439;-58
2022/04/20 00:27:39;;;;;;;2.00;1.90;;;;;;;7.66;68.70;94935.09;5096306;28;20115;-58
2022/04/20 00:30:07;;;;;;;2.13;2.00;;;;;;;7.68;68.81;94933.16;5094247;28;20055;-58
2022/04/20 00:32:32;;;;;;;2.33;2.15;;;;;;;7.61;69.53;94932.88;5098406;28;20105;-59
2022/04/20 00:34:58;;;;;;;2.13;2.03;;;;;;;7.57;70.09;94931.53;5095313;28;20040;-58
2022/04/20 00:37:24;;;;;;;2.17;1.92;;;;;;;7.54;70.06;94931.81;5097318;28;20031;-58
2022/04/20 00:39:49;;;;;;;2.00;1.80;;;;;;;7.48;70.58;94930.59;5098665;28;20077;-58
2022/04/20 00:42:15;;;;;;;1.80;1.70;;;;;;;7.50;70.40;94931.25;5096559;28;20081;-58
2022/04/20 00:44:41;;;;;;;2.30;2.20;;;;;;;7.48;71.35;94927.16;5096099;28;20117;-58
2022/04/20 00:47:07;;;;;;;2.80;2.15;;;;;;;7.48;70.85;94922.72;5096316;28;20020;-58
2022/04/20 00:49:35;;;;;;;2.97;1.83;;;;;;;7.43;71.19;94917.09;5094570;28;20028;-58
2022/04/20 00:52:02;;;;;;;2.13;2.00;;;;;;;7.38;72.22;94919.31;5095448;28;20028;-58
2022/04/20 00:54:27;;;;;;;3.15;2.00;;;;;;;7.31;71.28;94916.44;5096773;28;20484;-58
2022/04/20 00:56:52;;;;;;;2.20;1.98;;;;;;;7.27;71.11;94921.13;5094340;28;20030;-59
2022/04/20 00:59:21;;;;;;;1.70;1.70;;;;;;;7.26;72.49;94918.66;5094227;28;20032;-57
2022/04/20 01:01:47;;;;;;;2.35;2.05;;;;;;;7.27;70.36;94920.31;5093683;28;20028;-58
2022/04/20 01:04:12;;;;;;;1.88;1.77;;;;;;;7.34;69.21;94917.94;5094441;28;20384;-58
2022/04/20 01:06:38;;;;;;;1.92;1.83;;;;;;;7.34;69.92;94923.19;5092502;28;20036;-58
2022/04/20 01:09:04;;;;;;;1.90;1.80;;;;;;;7.36;69.54;94923.88;5096185;28;20028;-58
2022/04/20 01:11:29;;;;;;;1.95;1.85;;;;;;;7.33;69.78;94922.34;5095469;28;20028;-58
2022/04/20 01:13:55;;;;;;;2.03;1.92;;;;;;;7.28;69.72;94924.56;5094323;28;20446;-58
2022/04/20 01:16:20;;;;;;;1.65;1.63;;;;;;;7.29;70.75;94923.59;5097978;28;20111;-59
2022/04/20 01:18:49;;;;;;;3.80;1.80;;;;;;;7.26;71.49;94926.50;5095166;28;20032;-58
2022/04/20 01:21:14;;;;;;;1.88;1.77;;;;;;;7.25;71.34;94927.47;5094795;28;20479;-58
2022/04/20 01:23:40;;;;;;;2.38;2.28;;;;;;;7.24;72.29;94931.06;5095778;28;20069;-58
2022/04/20 01:26:07;;;;;;;1.92;1.83;;;;;;;7.23;72.17;94917.13;5093237;28;20036;-58
2022/04/20 01:28:33;;;;;;;2.20;2.10;;;;;;;7.14;72.11;94924.03;5100634;28;20451;-58
2022/04/20 01:30:59;;;;;;;3.80;2.30;;;;;;;7.09;72.52;94928.84;5093166;28;20106;-58
2022/04/20 01:33:24;;;;;;;2.00;1.90;;;;;;;7.10;71.84;94925.28;5095415;28;20046;-58
2022/04/20 01:35:49;;;;;;;1.85;1.75;;;;;;;7.09;72.40;94925.44;5091905;28;20153;-58
2022/04/20 01:38:15;;;;;;;1.95;1.85;;;;;;;7.05;72.28;94931.88;5096897;28;20032;-58
2022/04/20 01:40:40;;;;;;;1.70;1.60;;;;;;;7.09;72.17;94928.06;5095237;28;20431;-58
2022/04/20 01:43:05;;;;;;;2.25;2.13;;;;;;;7.09;72.65;94921.00;5096772;28;20131;-58
2022/04/20 01:45:31;;;;;;;1.90;1.80;;;;;;;7.06;73.10;94928.31;5093387;28;20031;-58
2022/04/20 01:47:56;;;;;;;2.35;2.25;;;;;;;7.01;73.25;94926.94;5095824;28;20032;-58
2022/04/20 01:50:22;;;;;;;2.50;2.08;;;;;;;6.95;74.11;94924.03;5098179;28;20453;-59
2022/04/20 01:52:49;;;;;;;2.88;2.40;;;;;;;6.92;74.64;94926.94;5094977;28;20100;-58
2022/04/20 01:55:14;;;;;;;2.22;2.13;;;;;;;6.88;74.37;94927.22;5094967;28;20075;-58
2022/04/20 01:57:40;;;;;;;1.77;1.73;;;;;;;6.83;74.35;94926.81;5096737;28;20067;-58
2022/04/20 02:00:06;;;;;;;2.30;2.17;;;;;;;6.81;74.06;94930.50;5095452;28;20040;-59
2022/04/20 02:02:40;;;;;;;2.03;1.92;;;;;;;6.78;73.70;94925.56;5094818;28;20030;-58
2022/04/20 02:05:11;;;;;;;2.30;2.20;;;;;;;6.76;74.42;94924.88;5089305;28;20036;-58
2022/04/20 02:07:37;;;;;;;2.10;1.90;;;;;;;6.72;74.42;94930.38;5094773;28;20765;-59
2022/04/20 02:10:05;;;;;;;2.42;2.15;;;;;;;6.72;75.37;94921.69;5093612;28;20036;-59
2022/04/20 02:12:31;;;;;;;2.17;2.08;;;;;;;6.70;74.48;94924.47;5095393;28;20024;-59
2022/04/20 02:14:57;;;;;;;1.90;1.80;;;;;;;6.71;74.64;94935.75;5093290;28;20054;-58
2022/04/20 02:17:22;;;;;;;2.08;1.98;;;;;;;6.68;75.04;94931.63;5094614;28;20407;-58
2022/04/20 02:19:48;;;;;;;2.47;2.28;;;;;;;6.67;75.10;94923.91;5092650;28;20031;-58
2022/04/20 02:22:14;;;;;;;2.75;2.50;;;;;;;6.65;74.93;94931.06;5095575;28;20500;-58
2022/04/20 02:24:39;;;;;;;3.08;2.88;;;;;;;6.61;75.66;94924.47;5094663;28;20058;-59
2022/04/20 02:27:05;;;;;;;2.60;2.40;;;;;;;6.54;75.51;94930.25;5098090;28;20107;-59
2022/04/20 02:29:30;;;;;;;2.42;2.22;;;;;;;6.51;74.75;94932.28;5097501;28;20024;-58
2022/04/20 02:31:56;;;;;;;4.20;2.35;;;;;;;6.51;75.10;94925.25;5097983;28;20427;-59
2022/04/20 02:34:21;;;;;;;2.08;1.98;;;;;;;6.49;74.98;94932.41;5098461;28;20134;-58
2022/04/20 02:36:47;;;;;;;2.28;2.08;;;;;;;6.46;75.85;94930.06;5097632;28;20035;-58
2022/04/20 02:39:13;;;;;;;2.80;2.00;;;;;;;6.39;75.22;94921.94;5099895;28;20032;-58
2022/04/20 02:41:40;;;;;;;2.15;2.05;;;;;;;6.37;75.18;94923.06;5098521;28;20036;-58
2022/04/20 02:44:06;;;;;;;4.03;1.98;;;;;;;6.37;74.98;94917.81;5097972;28;20040;-58
2022/04/20 02:46:32;;;;;;;2.20;2.00;;;;;;;6.40;75.10;94920.97;5096600;28;20399;-59
2022/04/20 02:48:58;;;;;;;3.00;2.28;;;;;;;6.34;76.17;94913.69;5096130;28;20110;-59
2022/04/20 02:51:23;;;;;;;2.40;2.25;;;;;;;6.29;75.87;94914.06;5099268;28;20131;-58
2022/04/20 02:53:48;;;;;;;3.58;2.10;;;;;;;6.24;76.94;94910.22;5097060;28;20482;-58
2022/04/20 02:56:14;;;;;;;2.97;2.78;;;;;;;6.18;76.23;94914.19;5096908;28;20067;-58
2022/04/20 02:58:39;;;;;;;2.22;2.13;;;;;;;6.19;76.21;94912.41;5099739;28;20042;-58
2022/04/20 03:01:06;;;;;;;2.42;2.30;;;;;;;6.19;75.98;94910.63;5098315;28;20043;-59
2022/04/20 03:03:31;;;;;;;2.33;2.22;;;;;;;6.18;76.61;94914.19;5098009;28;20403;-59
2022/04/20 03:05:56;;;;;;;4.35;2.97;;;;;;;6.13;76.51;94913.78;5095999;28;20047;-58
2022/04/20 03:08:23;;;;;;;5.43;2.90;;;;;;;6.13;76.12;94916.41;5099650;28;20039;-59
2022/04/20 03:10:49;;;;;;;3.20;2.90;;;;;;;6.17;75.96;94917.78;5095909;28;20070;-58
2022/04/20 03:13:15;;;;;;;2.72;2.53;;;;;;;6.11;77.20;94916.50;5098721;28;20454;-58
2022/04/20 03:15:40;;;;;;;3.17;2.40;;;;;;;6.06;77.38;94920.47;5096613;27;20036;-59
2022/04/20 03:18:06;;;;;;;3.70;2.25;;;;;;;6.05;76.95;94924.06;5097786;28;20172;-58
2022/04/20 03:20:32;;;;;;;4.90;2.63;;;;;;;6.02;78.04;94922.56;5096634;28;20475;-59
2022/04/20 03:22:57;;;;;;;3.00;2.80;;;;;;;6.02;77.48;94925.97;5100717;28;20038;-58
2022/04/20 03:25:22;;;;;;;5.18;4.00;;;;;;;6.01;77.61;94920.91;5097212;28;20032;-58
2022/04/20 03:27:48;;;;;;;6.28;3.78;;;;;;;5.99;77.30;94923.59;5096858;28;20119;-59
2022/04/20 03:30:14;;;;;;;4.07;3.35;;;;;;;5.98;77.25;94915.91;5095516;28;20594;-59
2022/04/20 03:32:40;;;;;;;4.53;2.80;;;;;;;5.97;78.06;94930.75;5096885;28;20043;-59
2022/04/20 03:35:06;;;;;;;2.75;2.58;;;;;;;5.95;77.89;94918.75;5097908;28;20036;-59
2022/04/20 03:37:32;;;;;;;4.32;2.50;;;;;;;5.89;78.47;94922.75;5096282;28;20042;-58
2022/04/20 03:39:59;;;;;;;2.58;2.40;;;;;;;5.86;77.85;94920.41;5094769;28;20024;-59
2022/04/20 03:42:25;;;;;;;2.55;2.35;;;;;;;5.83;77.72;94920.66;5099888;28;20530;-59
2022/04/20 03:44:50;;;;;;;2.50;2.30;;;;;;;5.80;77.74;94920.91;5098639;28;20117;-60
2022/04/20 03:47:16;;;;;;;2.70;2.50;;;;;;;5.78;77.96;94922.84;5097890;28;20480;-59
2022/04/20 03:49:41;;;;;;;2.13;2.03;;;;;;;5.79;78.91;94930.56;5094262;28;20044;-59
2022/04/20 03:52:07;;;;;;;2.47;2.28;;;;;;;5.79;79.18;94924.50;5095684;28;20024;-58
2022/04/20 03:54:35;;;;;;;2.67;2.55;;;;;;;5.82;78.58;94932.06;5097570;28;20024;-58
2022/04/20 03:57:03;;;;;;;2.92;2.72;;;;;;;5.78;79.36;94922.84;5094536;28;20449;-58
2022/04/20 03:59:29;;;;;;;5.47;2.45;;;;;;;5.72;79.06;94937.22;5096422;28;20040;-59
2022/04/20 04:01:55;;;;;;;3.08;2.88;;;;;;;5.69;78.89;94933.13;5096831;28;20030;-58
2022/04/20 04:04:20;;;;;;;2.40;2.20;;;;;;;5.70;78.52;94932.16;5096282;28;20110;-58
2022/04/20 04:06:46;;;;;;;2.60;2.40;;;;;;;5.69;79.35;94935.72;5096099;28;20376;-58
2022/04/20 04:09:12;;;;;;;2.53;2.33;;;;;;;5.66;79.71;94941.22;5097891;28;20114;-58
2022/04/20 04:11:39;;;;;;;3.47;2.88;;;;;;;5.62;80.44;94931.97;5095631;28;20036;-58
2022/04/20 04:14:04;;;;;;;2.55;2.30;;;;;;;5.61;79.45;94942.56;5095312;28;20070;-58
2022/04/20 04:16:29;;;;;;;2.60;2.40;;;;;;;5.61;79.68;94938.16;5094601;28;20078;-58
2022/04/20 04:18:55;;;;;;;2.53;2.33;;;;;;;5.59;79.12;94940.91;5096428;28;20031;-58
2022/04/20 04:21:21;;;;;;;2.40;2.22;;;;;;;5.59;79.85;94938.28;5100636;28;20564;-58
2022/04/20 04:23:47;;;;;;;2.33;2.22;;;;;;;5.57;79.31;94936.75;5093891;28;20489;-58
2022/04/20 04:26:13;;;;;;;3.50;2.58;;;;;;;5.56;79.37;94935.94;5093572;28;20090;-58
2022/04/20 04:28:42;;;;;;;2.05;1.90;;;;;;;5.56;79.91;94938.56;5095842;28;20044;-58
2022/04/20 04:31:08;;;;;;;2.85;2.05;;;;;;;5.52;79.54;94944.97;5096594;28;20028;-58
2022/04/20 04:33:34;;;;;;;2.28;2.17;;;;;;;5.54;78.50;94943.09;5095361;28;20554;-58
2022/04/20 04:36:00;;;;;;;2.55;2.38;;;;;;;5.56;78.81;94950.78;5095073;28;20039;-58
2022/04/20 04:38:26;;;;;;;2.55;2.35;;;;;;;5.52;79.57;94949.38;5093219;28;20131;-58
2022/04/20 04:40:52;;;;;;;2.00;1.98;;;;;;;5.50;79.63;94951.28;5097541;28;20171;-58
2022/04/20 04:43:18;;;;;;;2.17;2.05;;;;;;;5.49;80.41;94954.88;5098630;28;20044;-59
2022/04/20 04:48:36;;;;;;;2.45;2.35;;;;;;;5.44;81.74;94952.63;5095049;28;20039;-58
2022/04/20 04:51:02;;;;;;;2.03;1.92;;;;;;;5.42;81.13;94960.59;5095157;28;20028;-58
2022/04/20 04:53:28;;;;;;;3.47;2.65;;;;;;;5.40;80.55;94951.25;5097083;28;20039;-58
2022/04/20 04:55:54;;;;;;;2.28;2.17;;;;;;;5.43;79.68;94954.44;5093888;28;20099;-58
2022/04/20 04:58:19;;;;;;;2.45;2.35;;;;;;;5.49;80.14;94953.06;5096055;28;20028;-58
2022/04/20 05:00:44;;;;;;;2.70;2.50;;;;;;;5.50;80.77;94957.31;5095875;28;20407;-59
2022/04/20 05:03:10;;;;;;;3.40;2.20;;;;;;;5.50;79.99;94962.56;5094690;28;20028;-59
2022/04/20 05:05:35;;;;;;;2.70;2.55;;;;;;;5.57;80.64;94965.47;5094630;28;20035;-58
2022/04/20 05:08:01;;;;;;;9.77;3.30;;;;;;;5.66;80.20;94969.09;5096262;28;20498;-59
2022/04/20 05:10:26;;;;;;;20.80;4.38;;;;;;;5.73;79.97;94971.06;5094645;28;20036;-59
2022/04/20 05:12:52;;;;;;;4.22;3.28;;;;;;;5.81;80.27;94970.44;5094035;28;20024;-59
2022/04/20 05:15:17;;;;;;;4.15;3.80;;;;;;;5.90;80.75;94975.81;5097748;28;20028;-59
2022/04/20 05:17:43;;;;;;;10.70;3.50;;;;;;;5.95;81.50;94964.03;5099553;28;20032;-59
2022/04/20 05:20:09;;;;;;;3.00;2.78;;;;;;;5.96;80.69;94978.75;5094012;28;20039;-58
2022/04/20 05:22:37;;;;;;;5.20;2.83;;;;;;;6.05;79.53;94981.53;5094108;28;20118;-59
2022/04/20 05:25:03;;;;;;;3.33;3.03;;;;;;;6.14;78.71;94973.75;5095308;28;20024;-59
2022/04/20 05:27:28;;;;;;;4.03;3.60;;;;;;;6.33;77.31;94973.97;5100035;28;20110;-59
2022/04/20 05:29:53;;;;;;;8.27;7.47;;;;;;;6.40;77.24;94975.88;5096857;28;20114;-58
2022/04/20 05:32:19;;;;;;;8.32;7.43;;;;;;;6.44;76.94;94971.22;5095907;28;20035;-59
2022/04/20 05:34:44;;;;;;;5.95;5.40;;;;;;;6.57;78.57;94974.44;5096275;28;20470;-59
2022/04/20 05:42:37;;;;;;;4.70;2.78;;;;;;;6.80;76.61;94968.94;5095492;28;20030;-58
2022/04/20 05:45:03;;;;;;;3.08;2.88;;;;;;;6.86;76.30;94968.41;5095241;28;20044;-59
2022/04/20 05:47:29;;;;;;;5.40;4.57;;;;;;;6.99;76.12;94975.16;5093383;28;20035;-58
2022/04/20 05:49:55;;;;;;;4.75;4.35;;;;;;;7.15;75.90;94979.84;5097583;28;20020;-59
2022/04/20 05:52:20;;;;;;;3.88;3.28;;;;;;;7.28;75.29;94976.94;5094778;28;20032;-58
2022/04/20 05:54:46;;;;;;;6.40;3.42;;;;;;;7.37;75.70;94973.47;5094175;28;20036;-58
2022/04/20 05:57:11;;;;;;;2.92;2.58;;;;;;;7.49;74.96;94966.28;5092690;28;20110;-59
2022/04/20 05:59:36;;;;;;;4.25;2.60;;;;;;;7.59;75.78;94974.97;5094393;28;20111;-60
2022/04/20 06:02:02;;;;;;;2.83;2.60;;;;;;;7.67;75.21;94957.69;5093894;28;20062;-59
2022/04/20 06:04:29;;;;;;;7.35;2.65;;;;;;;7.85;74.51;94955.19;5094642;28;20028;-58
2022/04/20 06:06:54;;;;;;;3.83;2.70;;;;;;;8.03;73.00;94955.25;5095149;28;20065;-58
2022/04/20 06:09:20;;;;;;;2.60;2.50;;;;;;;8.20;71.02;94951.03;5094397;28;20028;-58
2022/04/20 06:11:45;;;;;;;11.90;10.70;;;;;;;8.30;71.66;94951.81;5096329;28;20059;-59
2022/04/20 06:14:11;;;;;;;18.58;16.85;;;;;;;8.35;71.14;94956.59;5095593;28;20028;-58
2022/04/20 06:16:36;;;;;;;7.00;6.47;;;;;;;8.39;71.61;94950.09;5093861;28;20032;-58
2022/04/20 06:19:02;;;;;;;5.78;5.18;;;;;;;8.38;71.54;94955.50;5092684;28;20476;-59
2022/04/20 06:21:27;;;;;;;5.53;4.10;;;;;;;8.46;71.04;94960.81;5097879;28;20012;-59
2022/04/20 06:23:52;;;;;;;2.92;2.72;;;;;;;8.58;69.41;94961.47;5092013;28;20027;-58
2022/04/20 06:26:18;;;;;;;3.40;3.08;;;;;;;8.70;69.55;94955.06;5093623;28;20032;-58
2022/04/20 06:28:44;;;;;;;3.10;2.80;;;;;;;8.86;69.58;94954.41;5096388;28;20028;-58
2022/04/20 06:31:09;;;;;;;3.17;2.97;;;;;;;8.95;69.22;94957.91;5095895;28;20046;-58
2022/04/20 06:33:34;;;;;;;3.28;2.78;;;;;;;9.10;69.39;94963.47;5093261;28;20502;-59
2022/04/20 06:36:00;;;;;;;4.07;3.78;;;;;;;9.26;67.81;94957.53;5093389;28;20021;-58
2022/04/20 06:38:26;;;;;;;2.97;2.70;;;;;;;9.53;66.78;94955.78;5092235;28;20417;-58
2022/04/20 06:40:53;;;;;;;2.72;2.45;;;;;;;9.74;66.23;94960.66;5094542;28;20036;-59
2022/04/20 06:43:20;;;;;;;3.65;2.60;;;;;;;10.09;64.65;94965.16;5093569;28;20087;-59
2022/04/20 06:45:45;;;;;;;2.47;2.28;;;;;;;10.43;63.05;94956.44;5092845;28;20479;-59
2022/04/20 06:48:11;;;;;;;3.05;2.38;;;;;;;10.68;62.54;94959.13;5091596;28;20196;-58
2022/04/20 06:50:39;;;;;;;2.63;2.42;;;;;;;10.81;62.97;94956.88;5096167;28;20422;-58
2022/04/20 06:58:33;;;;;;;2.20;2.10;;;;;;;11.41;60.89;94954.97;5095741;28;20038;-58
2022/04/20 07:00:59;;;;;;;2.45;2.22;;;;;;;11.72;59.18;94956.09;5093321;28;20407;-59
2022/04/20 07:03:24;;;;;;;2.60;2.30;;;;;;;11.99;56.91;94954.06;5095218;28;20043;-58
2022/04/20 07:05:50;;;;;;;2.30;2.20;;;;;;;12.15;56.38;94945.28;5092280;28;20020;-58
2022/04/20 07:08:15;;;;;;;2.22;1.95;;;;;;;12.20;56.53;94948.25;5086432;28;20085;-59
2022/04/20 07:10:41;;;;;;;2.10;2.00;;;;;;;12.24;55.61;94943.44;5092106;28;20558;-59
2022/04/20 07:13:07;;;;;;;2.15;2.05;;;;;;;12.43;55.83;94947.50;5099769;28;20031;-59
2022/04/20 07:15:32;;;;;;;2.20;2.10;;;;;;;12.64;55.88;94939.00;5098568;28;20036;-59
2022/04/20 07:17:58;;;;;;;4.55;2.55;;;;;;;13.02;54.06;94939.06;5096898;28;20082;-59
2022/04/20 07:20:23;;;;;;;2.45;1.90;;;;;;;13.17;53.21;94933.03;5099176;28;20023;-59
2022/04/20 07:22:50;;;;;;;2.55;2.35;;;;;;;13.28;52.74;94934.44;5096499;28;20406;-59
2022/04/20 07:25:16;;;;;;;2.45;2.10;;;;;;;13.69;50.04;94928.84;5098983;28;20271;-59
2022/04/20 07:27:41;;;;;;;2.15;2.00;;;;;;;14.01;49.94;94926.03;5094419;28;20036;-59
2022/04/20 07:30:08;;;;;;;4.28;2.10;;;;;;;14.10;50.95;94932.06;5094681;28;20472;-59
2022/04/20 07:32:33;;;;;;;4.07;1.98;;;;;;;14.18;49.87;94921.38;5096297;28;20398;-59
2022/04/20 07:34:59;;;;;;;1.80;1.70;;;;;;;14.39;49.51;94914.50;5096797;28;20032;-58
2022/04/20 07:37:24;;;;;;;1.73;1.73;;;;;;;14.43;47.05;94913.97;5098873;28;20038;-59
2022/04/20 07:39:50;;;;;;;1.95;1.67;;;;;;;14.69;47.60;94914.44;5090786;28;20024;-59
2022/04/20 07:42:15;;;;;;;1.90;1.80;;;;;;;14.79;45.98;94919.47;5096251;28;20102;-59
2022/04/20 07:44:40;;;;;;;1.75;1.65;;;;;;;15.14;46.13;94909.03;5097227;28;20052;-58
2022/04/20 07:47:06;;;;;;;2.13;1.73;;;;;;;15.55;44.11;94912.84;5097186;28;20031;-59
2022/04/20 07:52:19;;;;;;;2.38;1.95;;;;;;;16.46;42.16;94911.16;5096719;28;20035;-59
2022/04/20 07:54:44;;;;;;;1.70;1.60;;;;;;;16.40;42.29;94912.81;5090764;28;20028;-59
2022/04/20 07:57:14;;;;;;;1.75;1.65;;;;;;;16.48;41.71;94911.81;5095283;28;20043;-59
2022/04/20 07:59:39;;;;;;;2.78;1.75;;;;;;;16.31;42.93;94903.34;5095842;28;20025;-59
2022/04/20 08:02:06;;;;;;;2.08;1.73;;;;;;;15.85;41.27;94907.34;5095942;28;20020;-59
2022/04/20 08:04:31;;;;;;;2.72;2.53;;;;;;;15.68;42.94;94907.66;5097001;28;20055;-59
2022/04/20 08:06:57;;;;;;;2.33;1.80;;;;;;;15.52;43.72;94907.94;5095751;28;20122;-59
2022/04/20 08:09:23;;;;;;;2.25;2.15;;;;;;;15.80;42.84;94909.75;5095904;28;20398;-59
2022/04/20 08:11:49;;;;;;;2.22;2.13;;;;;;;16.23;41.31;94914.13;5097600;28;20031;-59
2022/04/20 08:14:14;;;;;;;1.80;1.70;;;;;;;16.67;39.50;94909.41;5097963;28;20564;-59
2022/04/20 08:16:41;;;;;;;1.70;1.60;;;;;;;16.95;38.94;94905.84;5097704;28;20036;-59
2022/04/20 08:19:07;;;;;;;1.70;1.60;;;;;;;17.45;37.91;94905.50;5095339;28;20028;-58
2022/04/20 08:21:33;;;;;;;2.47;1.90;;;;;;;17.76;36.20;94906.72;5099812;28;20034;-59
2022/04/20 08:23:58;;;;;;;1.95;1.75;;;;;;;17.75;37.45;94905.91;5094540;28;20111;-59
2022/04/20 08:26:24;;;;;;;1.60;1.50;;;;;;;17.89;38.18;94901.38;5094845;28;20107;-59
2022/04/20 08:28:49;;;;;;;1.70;1.60;;;;;;;18.03;36.38;94902.22;5096782;28;20024;-59
2022/04/20 08:31:15;;;;;;;3.67;1.83;;;;;;;17.85;37.96;94902.03;5097824;28;20069;-59
2022/04/20 08:33:41;;;;;;;2.00;1.30;;;;;;;17.46;38.03;94907.97;5093770;28;20501;-59
2022/04/20 08:36:07;;;;;;;1.60;1.50;;;;;;;17.49;35.17;94892.63;5096990;28;20414;-59
2022/04/20 08:38:32;;;;;;;1.80;1.40;;;;;;;17.40;38.06;94898.16;5095210;28;20039;-58
2022/04/20 08:41:00;;;;;;;1.80;1.70;;;;;;;18.05;36.48;94899.34;5096299;28;20034;-59
2022/04/20 08:43:27;;;;;;;2.20;1.77;;;;;;;18.15;36.41;94891.75;5098045;28;20040;-59
2022/04/20 08:45:52;;;;;;;1.30;1.30;;;;;;;18.81;34.81;94891.69;5092363;28;20076;-59
2022/04/20 08:48:18;;;;;;;1.27;1.23;;;;;;;19.13;34.88;94886.41;5097955;28;20051;-59
2022/04/20 08:50:44;;;;;;;3.25;1.50;;;;;;;19.29;34.79;94882.41;5094991;28;20069;-59
2022/04/20 08:53:10;;;;;;;1.50;1.40;;;;;;;18.95;33.53;94886.28;5094792;28;20038;-59
2022/04/20 08:55:36;;;;;;;2.13;1.80;;;;;;;19.77;31.60;94885.50;5097765;28;20114;-59
2022/04/20 08:58:04;;;;;;;1.67;1.40;;;;;;;20.32;32.07;94879.44;5093860;28;20451;-59
2022/04/20 09:00:30;;;;;;;2.92;1.42;;;;;;;19.77;31.47;94874.81;5094786;28;20483;-59
2022/04/20 09:02:57;;;;;;;1.30;1.30;;;;;;;20.49;30.68;94873.47;5095070;28;20039;-59
2022/04/20 09:05:30;;;;;;;2.15;1.55;;;;;;;20.06;31.15;94864.50;5094612;28;20024;-59
2022/04/20 09:07:56;;;;;;;1.88;1.75;;;;;;;20.64;31.10;94864.22;5094490;28;20028;-59
2022/04/20 09:10:22;;;;;;;3.72;1.20;;;;;;;20.30;30.78;94865.47;5096088;28;20061;-59
2022/04/20 09:13:06;;;;;;;1.17;1.10;;;;;;;21.15;30.48;94862.13;5093165;28;20085;-59
2022/04/20 09:15:32;;;;;;;1.60;1.50;;;;;;;21.55;31.66;94852.63;5095521;28;20028;-60
2022/04/20 09:17:58;;;;;;;3.25;1.38;;;;;;;;;;5094399;28;20085;-59
2022/04/20 09:20:24;;;;;;;1.27;1.17;;;;;;;21.59;29.02;94857.31;5095128;28;20028;-56
2022/04/20 09:22:59;;;;;;;5.40;1.35;;;;;;;21.85;29.53;94862.47;5095904;28;20096;-56
2022/04/20 09:25:29;;;;;;;1.40;1.30;;;;;;;21.88;28.98;94860.16;5093464;28;20035;-56
2022/04/20 09:27:55;;;;;;;1.60;1.50;;;;;;;21.79;30.23;94866.09;5093937;28;20028;-56
2022/04/20 09:30:20;;;;;;;2.17;1.40;;;;;;;22.10;30.67;94861.41;5095284;28;20043;-56
2022/04/20 09:32:46;;;;;;;4.97;2.17;;;;;;;22.73;28.93;94877.75;5089712;28;20028;-56
2022/04/20 09:35:18;;;;;;;3.72;2.42;;;;;;;23.45;27.92;94876.38;5096187;28;20028;-56
2022/04/20 09:37:44;;;;;;;2.47;2.17;;;;;;;22.73;28.17;94872.38;5092344;28;20406;-56
2022/04/20 09:40:11;;;;;;;2.22;1.85;;;;;;;22.52;28.59;94882.69;5094694;28;20122;-56
2022/04/20 09:42:39;;;;;;;3.15;2.38;;;;;;;22.23;29.23;94877.25;5096078;28;20105;-56
2022/04/20 09:45:07;;;;;;;3.38;1.75;;;;;;;21.99;29.38;94869.22;5093993;28;20044;-56
2022/04/20 09:50:24;;;;;;;6.95;2.05;;;;;;;21.51;30.81;94863.03;5097069;28;20050;-56
2022/04/20 09:52:54;;;;;;;9.55;2.10;;;;;;;21.60;30.13;94856.25;5093526;28;20085;-56
2022/04/20 09:55:34;;;;;;;2.15;1.95;;;;;;;21.01;30.18;94854.31;5091900;28;20059;-56
2022/04/20 09:58:08;;;;;;;2.53;1.73;;;;;;;21.92;29.43;94841.72;5093655;28;20051;-56
2022/04/20 10:00:38;;;;;;;;;;;;;;;21.56;30.04;94843.59;5096378;28;20047;-56
2022/04/20 10:03:03;;;;;;;2.92;2.45;;;;;;;22.08;29.16;94840.19;5094123;28;19920;-56
2022/04/20 10:05:28;;;;;;;5.07;1.77;;;;;;;22.98;27.72;94834.44;5093875;28;20104;-57
2022/04/20 10:07:58;;;;;;;5.47;1.55;;;;;;;22.55;27.89;94836.63;5093964;28;20119;-60
2022/04/20 10:10:23;;;;;;;7.30;1.90;;;;;;;21.39;28.88;94838.91;5095197;28;20032;-59
2022/04/20 10:12:54;;;;;;;1.60;1.50;;;;;;;21.30;30.23;94834.91;5092348;28;20042;-59
2022/04/20 10:18:09;;;;;;;2.33;1.50;;;;;;;22.83;26.05;94831.53;5096428;28;20085;-58
2022/04/20 10:20:34;;;;;;;1.55;1.45;;;;;;;22.36;27.49;94830.59;5078114;28;20088;-59
2022/04/20 10:23:02;;;;;;;2.42;1.48;;;;;;;22.24;27.48;94838.69;5093526;28;20486;-58
2022/04/20 10:25:28;;;;;;;1.42;1.33;;;;;;;22.38;26.79;94833.03;5092526;28;20039;-59
2022/04/20 10:28:08;;;;;;;5.60;1.27;;;;;;;22.12;26.00;94835.19;5095260;28;20479;-58
2022/04/20 10:30:59;;;;;;;1.80;1.60;;;;;;;21.65;27.16;94828.81;5094894;28;20028;-57
2022/04/20 10:33:26;;;;;;;2.55;1.30;;;;;;;21.63;27.16;94830.91;5095073;28;20049;-58
2022/04/20 10:35:55;;;;;;;4.30;1.50;;;;;;;21.27;28.13;94824.69;5092272;28;20028;-58
2022/04/20 10:38:21;;;;;;;1.58;1.48;;;;;;;21.62;28.13;94813.19;5096752;28;20024;-58
2022/04/20 10:41:02;;;;;;;1.67;1.58;;;;;;;21.74;28.15;94816.69;5095918;28;20099;-58
2022/04/20 10:43:29;;;;;;;1.33;1.30;;;;;;;21.58;28.19;94820.06;5093861;28;20046;-58
2022/04/20 10:46:07;;;;;;;1.25;1.15;;;;;;;21.29;27.99;94819.91;5092187;28;20107;-58
2022/04/20 10:48:49;;;;;;;2.13;1.40;;;;;;;21.20;28.27;94823.97;5099702;28;20077;-58
2022/04/20 10:51:17;;;;;;;1.70;1.60;;;;;;;20.65;29.80;94825.75;5097857;28;20101;-58
2022/04/20 10:53:50;;;;;;;1.83;1.73;;;;;;;20.85;28.78;94833.56;5091859;28;20032;-58
2022/04/20 10:56:17;;;;;;;2.85;1.33;;;;;;;20.17;30.38;94836.22;5096980;28;20114;-58
2022/04/20 10:59:04;;;;;;;3.85;1.63;;;;;;;20.14;31.32;94823.31;5097048;28;20039;-59
2022/04/20 11:01:30;;;;;;;6.35;1.85;;;;;;;20.03;30.57;94832.88;5100797;28;20035;-58
2022/04/20 11:03:58;;;;;;;3.25;1.63;;;;;;;20.07;30.50;94833.25;5095415;28;20032;-58
2022/04/20 11:06:58;;;;;;;1.45;1.30;;;;;;;19.94;30.06;94835.03;5095959;28;20036;-59
2022/04/20 11:09:41;;;;;;;1.52;1.42;;;;;;;19.84;29.05;94840.84;5100081;28;20081;-58
2022/04/20 11:21:09;;;;;;;1.52;1.42;;;;;;;21.80;28.24;94844.44;5097674;28;20063;-59
2022/04/20 11:23:59;;;;;;;1.30;1.30;;;;;;;22.12;26.55;94832.50;5095446;28;20114;-58
2022/04/20 11:26:39;;;;;;;1.45;1.38;;;;;;;22.50;24.80;94825.81;5096169;28;20036;-58
2022/04/20 11:29:11;;;;;;;2.08;1.80;;;;;;;21.82;26.07;94826.25;5095937;28;20032;-58
2022/04/20 11:31:40;;;;;;;1.27;1.27;;;;;;;22.18;27.31;94819.00;5097096;28;20032;-59
2022/04/20 11:34:06;;;;;;;4.95;1.50;;;;;;;22.72;26.96;94819.78;5096099;28;20047;-58
2022/04/20 11:36:32;;;;;;;1.30;1.20;;;;;;;23.09;25.43;94826.59;5095170;28;20027;-58
2022/04/20 11:39:00;;;;;;;1.15;1.05;;;;;;;23.12;25.18;94821.56;5097178;28;20032;-58
2022/04/20 11:41:27;;;;;;;1.50;1.40;;;;;;;22.83;26.14;94824.25;5096295;28;20052;-59
2022/04/20 11:43:52;;;;;;;1.98;1.30;;;;;;;22.53;26.42;94825.34;5098321;28;20087;-59
2022/04/20 11:46:20;;;;;;;1.95;1.40;;;;;;;22.86;25.83;94820.31;5095652;28;20452;-59
2022/04/20 11:48:50;;;;;;;1.65;1.55;;;;;;;22.53;26.19;94816.47;5097209;28;20070;-59
2022/04/20 11:51:25;;;;;;;2.80;1.42;;;;;;;22.63;26.72;94821.19;5095160;28;20055;-59
2022/04/20 11:53:51;;;;;;;4.90;1.65;;;;;;;22.88;26.99;94819.00;5101168;28;20509;-58
2022/04/20 11:56:17;;;;;;;1.40;1.30;;;;;;;22.48;27.10;94817.19;5095723;28;20487;-59
2022/04/20 11:58:49;;;;;;;3.78;2.00;;;;;;;22.68;26.43;94821.31;5094660;28;20020;-58
2022/04/20 12:01:15;;;;;;;1.42;1.33;;;;;;;22.19;27.37;94825.16;5099397;28;20039;-59
2022/04/20 12:03:42;;;;;;;1.45;1.40;;;;;;;22.18;28.32;94819.00;5098520;28;20024;-58
2022/04/20 12:06:11;;;;;;;2.28;1.70;;;;;;;22.63;27.92;94824.72;5094730;28;20028;-59
2022/04/20 12:08:40;;;;;;;1.70;1.60;;;;;;;23.12;27.84;94824.25;5098723;28;20103;-59